Time;durP1;ratioP1;P1;durP2;ratioP2;P2;SDS_P1;SDS_P2;PMS_P1;PMS_P2;Temp;Humidity;BMP_temperature;BMP_pressure;BME280_temperature;BME280_humidity;BME280_pressure;Samples;Min_cycle;Max_cycle;Signal;HPM_P1;HPM_P2
2022/05/28 00:01:09;;;;;;;7.20;6.90;;;;;;;20.57;60.88;99747.34;5034797;28;20018;-58
2022/05/28 00:03:35;;;;;;;7.47;7.15;;;;;;;20.68;61.69;99738.53;5034529;28;20076;-58
2022/05/28 00:06:01;;;;;;;7.93;7.53;;;;;;;20.77;62.19;99738.28;5034661;28;20029;-58
2022/05/28 00:08:27;;;;;;;8.25;7.85;;;;;;;20.87;62.27;99749.63;5034838;28;20034;-58
2022/05/28 00:10:56;;;;;;;7.10;6.80;;;;;;;20.87;63.20;99744.16;5034446;28;20029;-58
2022/05/28 00:13:23;;;;;;;7.80;7.30;;;;;;;20.90;63.45;99741.81;5033019;28;20055;-58
2022/05/28 00:15:49;;;;;;;7.72;7.43;;;;;;;20.97;63.79;99741.78;5034532;28;20488;-57
2022/05/28 00:18:14;;;;;;;7.43;7.13;;;;;;;20.95;64.56;99738.44;5034708;28;20037;-58
2022/05/28 00:20:39;;;;;;;7.10;6.80;;;;;;;21.01;64.12;99743.06;5034599;28;20106;-58
2022/05/28 00:23:05;;;;;;;7.80;7.30;;;;;;;21.03;64.79;99746.41;5034388;28;20048;-58
2022/05/28 00:25:30;;;;;;;7.20;6.90;;;;;;;21.07;64.67;99736.72;5034767;28;20033;-57
2022/05/28 00:27:56;;;;;;;7.30;7.00;;;;;;;21.14;64.90;99747.63;5034219;28;20148;-58
2022/05/28 00:30:22;;;;;;;7.40;7.10;;;;;;;21.13;65.55;99741.31;5034072;28;20033;-58
2022/05/28 00:32:47;;;;;;;7.32;7.03;;;;;;;21.21;65.11;99738.34;5034139;28;20135;-58
2022/05/28 00:35:16;;;;;;;7.53;7.13;;;;;;;21.22;64.42;99734.56;5034051;28;20468;-58
2022/05/28 00:37:42;;;;;;;7.90;7.55;;;;;;;21.27;64.81;99736.69;5033876;28;20065;-58
2022/05/28 00:40:12;;;;;;;6.70;6.50;;;;;;;21.29;64.87;99737.28;5034097;28;20025;-58
2022/05/28 00:42:37;;;;;;;7.38;7.07;;;;;;;21.30;64.40;99730.78;5033880;28;20286;-58
2022/05/28 00:45:03;;;;;;;7.40;7.10;;;;;;;21.31;63.67;99733.28;5033851;28;20074;-58
2022/05/28 00:47:30;;;;;;;8.07;7.68;;;;;;;21.31;63.91;99738.75;5033678;28;20508;-58
2022/05/28 00:49:55;;;;;;;7.53;7.20;;;;;;;21.34;64.01;99750.34;5034145;28;20025;-57
2022/05/28 00:52:24;;;;;;;7.80;7.50;;;;;;;21.36;63.94;99734.53;5033587;28;20039;-58
2022/05/28 00:54:50;;;;;;;7.07;6.78;;;;;;;21.30;63.46;99731.59;5032444;28;20067;-59
2022/05/28 00:57:16;;;;;;;7.45;7.13;;;;;;;21.37;63.21;99730.75;5033632;28;20021;-59
2022/05/28 00:59:44;;;;;;;7.00;6.70;;;;;;;21.35;62.71;99728.25;5032575;28;20395;-58
2022/05/28 01:02:20;;;;;;;7.30;7.00;;;;;;;21.37;62.90;99736.22;5033678;28;20087;-58
2022/05/28 01:04:58;;;;;;;7.15;6.85;;;;;;;21.40;62.48;99730.31;5033794;28;20527;-55
2022/05/28 01:07:29;;;;;;;7.35;7.05;;;;;;;21.42;62.77;99733.66;5033994;28;20476;-58
2022/05/28 01:10:33;;;;;;;7.40;7.10;;;;;;;21.40;63.10;99724.84;5033439;28;20095;-58
2022/05/28 01:13:24;;;;;;;7.30;7.00;;;;;;;21.40;62.29;99730.31;5032803;28;20084;-58
2022/05/28 01:15:57;;;;;;;7.25;6.95;;;;;;;21.39;62.39;99723.16;5033324;28;20465;-58
2022/05/28 01:18:33;;;;;;;7.10;6.80;;;;;;;21.45;62.30;99723.13;5032830;28;20100;-58
2022/05/28 01:21:18;;;;;;;6.75;6.45;;;;;;;21.42;61.94;99722.72;5033317;28;20499;-58
2022/05/28 01:23:57;;;;;;;7.07;6.78;;;;;;;21.41;62.29;99721.06;5031902;28;20330;-58
2022/05/28 01:26:56;;;;;;;6.95;6.65;;;;;;;21.42;62.41;99712.63;5033083;28;20053;-58
2022/05/28 01:29:25;;;;;;;7.47;7.18;;;;;;;21.41;62.52;99718.31;4971726;28;20046;-59
2022/05/28 01:31:51;;;;;;;7.15;6.85;;;;;;;21.40;62.21;99714.75;4972002;28;20037;-58
2022/05/28 01:34:19;;;;;;;7.30;7.00;;;;;;;21.40;62.12;99714.75;4971853;28;20050;-58
2022/05/28 01:36:48;;;;;;;7.10;6.80;;;;;;;21.44;61.90;99712.41;4955899;28;20378;-58
2022/05/28 01:39:15;;;;;;;7.20;6.90;;;;;;;21.46;62.27;99713.03;4971710;28;20058;-58
2022/05/28 01:41:41;;;;;;;7.07;6.78;;;;;;;21.45;61.75;99708.63;4971718;28;20486;-58
2022/05/28 01:44:09;;;;;;;7.50;7.10;;;;;;;21.46;62.55;99713.03;4955923;28;20081;-58
2022/05/28 01:46:37;;;;;;;7.38;7.07;;;;;;;21.43;61.85;99718.94;4971411;28;20035;-58
2022/05/28 01:49:03;;;;;;;7.88;7.57;;;;;;;21.44;62.39;99715.16;4955435;28;20031;-58
2022/05/28 01:51:35;;;;;;;7.43;7.13;;;;;;;21.46;61.94;99718.50;4971429;28;20439;-58
2022/05/28 01:54:11;;;;;;;7.45;7.15;;;;;;;21.48;62.55;99722.69;4956123;28;20394;-56
2022/05/28 01:56:43;;;;;;;7.35;7.05;;;;;;;21.46;62.38;99713.88;4972231;28;20053;-58
2022/05/28 01:59:15;;;;;;;6.97;6.68;;;;;;;21.46;61.91;99719.34;4971410;28;20106;-58
2022/05/28 02:01:41;;;;;;;7.28;6.97;;;;;;;21.43;62.14;99718.94;4971423;28;20563;-58
2022/05/28 02:04:08;;;;;;;7.15;6.85;;;;;;;21.48;61.80;99719.09;4971503;28;20030;-57
2022/05/28 02:06:35;;;;;;;7.45;7.10;;;;;;;21.46;62.35;99719.34;5024041;28;20488;-58
2022/05/28 02:09:05;;;;;;;7.10;6.80;;;;;;;21.46;62.01;99719.34;5032615;28;20159;-59
2022/05/28 02:11:52;;;;;;;8.32;8.00;;;;;;;21.46;62.56;99718.50;5032248;28;20080;-57
2022/05/28 02:14:42;;;;;;;7.20;6.90;;;;;;;21.50;62.25;99715.13;5032420;28;20021;-58
2022/05/28 02:17:29;;;;;;;7.32;7.00;;;;;;;21.50;62.28;99722.47;5032782;28;20025;-57
2022/05/28 02:19:58;;;;;;;7.72;7.43;;;;;;;21.47;61.70;99720.16;5032489;28;20029;-58
2022/05/28 02:22:46;;;;;;;7.15;6.85;;;;;;;21.48;61.96;99721.84;5032113;28;20398;-59
2022/05/28 02:25:34;;;;;;;7.32;7.03;;;;;;;21.48;62.24;99719.94;5024164;28;20042;-58
2022/05/28 02:28:01;;;;;;;7.03;6.72;;;;;;;21.50;62.22;99727.94;5032401;28;20018;-58
2022/05/28 02:30:27;;;;;;;7.63;7.32;;;;;;;21.44;62.59;99724.19;5035482;28;20025;-58
2022/05/28 02:33:01;;;;;;;7.65;7.25;;;;;;;21.50;62.29;99726.06;5036538;28;20416;-57
2022/05/28 02:35:27;;;;;;;7.00;6.70;;;;;;;21.47;61.82;99725.63;5036206;28;20026;-58
2022/05/28 02:37:52;;;;;;;7.25;6.95;;;;;;;21.48;62.46;99727.31;5036262;28;20040;-58
2022/05/28 02:40:17;;;;;;;7.28;6.97;;;;;;;21.47;62.00;99731.94;5036152;28;20116;-59
2022/05/28 02:42:43;;;;;;;7.10;6.80;;;;;;;21.45;62.59;99727.75;5036970;28;20033;-57
2022/05/28 02:45:09;;;;;;;7.72;7.43;;;;;;;21.48;61.93;99732.78;5036227;28;20113;-58
2022/05/28 02:47:34;;;;;;;7.22;6.93;;;;;;;21.49;62.54;99734.47;5035979;28;20021;-58
2022/05/28 02:49:59;;;;;;;7.20;6.90;;;;;;;21.48;62.38;99732.78;5036062;28;20061;-58
2022/05/28 02:52:24;;;;;;;7.20;6.90;;;;;;;21.49;61.94;99731.72;5034595;28;20025;-59
2022/05/28 02:54:50;;;;;;;7.30;7.00;;;;;;;21.49;62.16;99729.00;5034808;28;20021;-59
2022/05/28 02:57:15;;;;;;;7.20;6.90;;;;;;;21.48;62.03;99732.78;5036035;28;20029;-58
2022/05/28 02:59:40;;;;;;;8.35;8.05;;;;;;;21.51;62.34;99729.63;5035845;28;20033;-58
2022/05/28 03:02:06;;;;;;;7.00;6.70;;;;;;;21.49;62.19;99731.72;5035874;28;20388;-58
2022/05/28 03:04:31;;;;;;;7.00;6.70;;;;;;;21.48;61.49;99738.25;5035761;28;20027;-58
2022/05/28 03:06:56;;;;;;;7.05;6.75;;;;;;;21.46;61.61;99734.91;5035809;28;20030;-57
2022/05/28 03:09:22;;;;;;;8.15;7.80;;;;;;;21.53;62.50;99735.72;5035915;28;20025;-58
2022/05/28 03:11:47;;;;;;;7.20;6.90;;;;;;;21.50;62.38;99738.88;5035605;28;20421;-58
2022/05/28 03:14:12;;;;;;;7.10;6.80;;;;;;;21.48;62.21;99738.25;5035643;28;20116;-58
2022/05/28 03:16:38;;;;;;;6.75;6.45;;;;;;;21.49;62.79;99739.94;5035491;28;20084;-58
2022/05/28 03:19:04;;;;;;;7.20;6.90;;;;;;;21.49;62.00;99737.19;5035696;28;20030;-58
2022/05/28 03:21:29;;;;;;;7.00;6.70;;;;;;;21.50;62.34;99736.13;5035266;28;20104;-58
2022/05/28 03:23:54;;;;;;;7.40;7.10;;;;;;;21.48;62.37;99738.25;5034272;28;20025;-58
2022/05/28 03:26:22;;;;;;;7.35;7.05;;;;;;;21.53;62.52;99746.66;5034117;28;20026;-58
2022/05/28 03:28:49;;;;;;;7.10;6.80;;;;;;;21.43;61.65;99746.28;5035169;28;20060;-57
2022/05/28 03:31:15;;;;;;;7.50;7.20;;;;;;;21.50;62.23;99736.13;5034148;28;20067;-58
2022/05/28 03:33:41;;;;;;;7.00;6.70;;;;;;;21.49;62.36;99742.66;5034111;28;20025;-58
2022/05/28 03:36:07;;;;;;;7.03;6.72;;;;;;;21.48;62.50;99743.72;5034169;28;20025;-58
2022/05/28 03:38:33;;;;;;;7.90;7.60;;;;;;;21.47;62.83;99739.31;5032601;28;20104;-58
2022/05/28 03:40:59;;;;;;;7.10;6.80;;;;;;;21.48;62.30;99743.72;5033644;28;20025;-58
2022/05/28 03:43:25;;;;;;;7.10;6.80;;;;;;;21.49;62.13;99743.50;5034099;28;20022;-57
2022/05/28 03:45:51;;;;;;;7.53;7.18;;;;;;;21.48;62.28;99743.72;5034644;28;20025;-58
2022/05/28 03:48:16;;;;;;;6.90;6.60;;;;;;;21.49;62.70;99746.22;5033864;28;20484;-58
2022/05/28 03:50:41;;;;;;;7.18;6.88;;;;;;;21.47;62.26;99752.97;5033782;28;20053;-58
2022/05/28 03:53:07;;;;;;;7.25;6.95;;;;;;;21.48;62.36;99751.91;5033851;28;20026;-58
2022/05/28 03:55:32;;;;;;;7.82;7.53;;;;;;;21.47;62.06;99748.34;5033711;28;20052;-58
2022/05/28 03:57:57;;;;;;;7.47;7.18;;;;;;;21.45;62.34;99757.84;5033791;28;20350;-58
2022/05/28 04:00:23;;;;;;;7.53;7.22;;;;;;;21.46;62.35;99759.50;5033541;28;20021;-58
2022/05/28 04:02:48;;;;;;;0.25;0.25;;;;;;;21.85;61.54;99753.84;5033794;28;20068;-58
2022/05/28 04:05:13;;;;;;;0.85;0.50;;;;;;;22.18;60.54;99761.00;5033580;28;20104;-58
2022/05/28 04:07:40;;;;;;;0.20;0.20;;;;;;;22.43;59.51;99747.31;5032412;28;20025;-58
2022/05/28 04:10:07;;;;;;;0.30;0.30;;;;;;;22.66;59.10;99758.44;5034217;28;20143;-58
2022/05/28 04:12:32;;;;;;;0.47;0.20;;;;;;;22.78;58.74;99761.28;5033242;28;20026;-58
2022/05/28 04:14:58;;;;;;;0.40;0.40;;;;;;;22.92;58.54;99762.88;5032264;28;20461;-58
2022/05/28 04:17:23;;;;;;;0.30;0.15;;;;;;;23.02;58.82;99765.94;5033264;28;20018;-58
2022/05/28 04:19:49;;;;;;;0.60;0.28;;;;;;;23.11;58.58;99767.28;5032167;28;20028;-58
2022/05/28 04:22:15;;;;;;;0.28;0.20;;;;;;;23.17;59.66;99764.69;4991504;28;1210461;-58
2022/05/28 04:24:40;;;;;;;0.30;0.30;;;;;;;23.20;59.59;99767.00;5034272;28;20083;-58
2022/05/28 04:27:06;;;;;;;0.10;0.10;;;;;;;23.27;59.30;99770.50;5034242;28;20389;-58
2022/05/28 04:29:31;;;;;;;1.08;0.50;;;;;;;23.35;59.25;99772.94;5034083;28;20041;-58
2022/05/28 04:31:57;;;;;;;0.68;0.60;;;;;;;23.38;59.41;99773.31;5034262;28;20021;-57
2022/05/28 04:34:22;;;;;;;0.10;0.10;;;;;;;23.45;59.15;99777.84;5034055;28;20039;-58
2022/05/28 04:36:47;;;;;;;0.20;0.20;;;;;;;23.45;58.85;99778.69;5034420;28;20104;-58
2022/05/28 04:39:12;;;;;;;0.30;0.30;;;;;;;23.53;58.99;99781.13;5033941;28;20100;-57
2022/05/28 04:41:38;;;;;;;0.20;0.20;;;;;;;23.56;59.39;99772.44;5033875;28;20380;-58
2022/05/28 04:44:03;;;;;;;1.00;0.20;;;;;;;23.61;58.80;99783.59;5033968;28;20028;-58
2022/05/28 04:46:28;;;;;;;0.20;0.20;;;;;;;23.64;59.19;99785.03;5034093;28;20465;-58
2022/05/28 04:48:54;;;;;;;0.65;0.35;;;;;;;23.67;59.17;99787.28;5034864;28;20017;-57
2022/05/28 04:51:20;;;;;;;0.30;0.30;;;;;;;23.27;59.54;99778.72;5033115;28;20056;-58
2022/05/28 04:53:46;;;;;;;0.70;0.30;;;;;;;23.00;59.03;99792.69;5033550;28;20068;-58
2022/05/28 04:56:11;;;;;;;0.20;0.17;;;;;;;22.66;57.62;99791.31;5034046;28;20057;-57
2022/05/28 04:58:37;;;;;;;0.28;0.28;;;;;;;22.59;56.86;99793.28;5033601;28;20481;-58
2022/05/28 05:01:02;;;;;;;0.75;0.32;;;;;;;22.33;54.62;99793.50;5033598;28;20041;-58
2022/05/28 05:03:27;;;;;;;0.75;0.35;;;;;;;22.10;53.92;99796.84;5033601;28;20040;-58
2022/05/28 05:05:53;;;;;;;0.45;0.20;;;;;;;21.97;55.56;99797.72;5033658;28;20030;-57
2022/05/28 05:08:18;;;;;;;0.10;0.10;;;;;;;21.93;54.36;99801.97;5033398;28;20053;-58
2022/05/28 05:10:46;;;;;;;0.47;0.30;;;;;;;21.80;53.99;99802.03;5033418;28;20469;-57
2022/05/28 05:13:11;;;;;;;0.40;0.22;;;;;;;21.65;54.71;99810.53;5033331;28;20033;-57
2022/05/28 05:15:38;;;;;;;0.25;0.25;;;;;;;21.63;54.92;99809.91;5033299;28;20480;-57
2022/05/28 05:18:04;;;;;;;0.77;0.35;;;;;;;21.58;54.94;99809.72;5033316;28;20052;-57
2022/05/28 05:20:29;;;;;;;0.40;0.40;;;;;;;21.52;53.83;99807.88;5033097;28;20022;-58
2022/05/28 05:22:55;;;;;;;0.30;0.30;;;;;;;21.61;54.43;99814.75;5033085;28;20045;-58
2022/05/28 05:25:21;;;;;;;0.60;0.30;;;;;;;21.69;54.06;99806.31;5033313;28;20037;-58
2022/05/28 05:27:46;;;;;;;0.40;0.40;;;;;;;21.65;54.71;99818.72;5033379;28;20052;-58
2022/05/28 05:30:12;;;;;;;0.65;0.20;;;;;;;21.57;54.50;99819.00;5033016;28;20033;-58
2022/05/28 05:32:37;;;;;;;0.65;0.25;;;;;;;21.61;54.26;99814.75;5033346;28;20059;-58
2022/05/28 05:35:03;;;;;;;0.38;0.30;;;;;;;21.68;53.57;99821.06;5032930;28;20040;-58
2022/05/28 05:37:28;;;;;;;0.17;0.17;;;;;;;21.71;54.40;99812.41;5032879;28;20033;-58
2022/05/28 05:39:54;;;;;;;0.40;0.28;;;;;;;21.70;54.41;99818.94;5033235;28;20029;-58
2022/05/28 05:42:19;;;;;;;0.77;0.50;;;;;;;21.73;53.56;99823.97;5032877;28;20385;-58
2022/05/28 05:44:44;;;;;;;1.27;0.57;;;;;;;21.71;54.57;99831.56;5033205;28;20021;-57
2022/05/28 05:47:10;;;;;;;0.52;0.35;;;;;;;21.74;54.00;99831.13;5032976;28;20030;-58
2022/05/28 05:49:35;;;;;;;0.40;0.30;;;;;;;21.75;54.65;99830.06;5032661;28;20038;-57
2022/05/28 05:52:02;;;;;;;0.40;0.40;;;;;;;21.68;54.53;99837.47;5033289;28;20380;-57
2022/05/28 05:54:28;;;;;;;0.30;0.30;;;;;;;21.70;54.25;99832.63;5032631;28;20053;-57
2022/05/28 05:56:54;;;;;;;0.63;0.45;;;;;;;21.73;55.46;99829.44;5032739;28;20476;-58
2022/05/28 05:59:20;;;;;;;0.80;0.32;;;;;;;21.72;54.88;99844.19;5032947;28;20429;-58
2022/05/28 06:01:45;;;;;;;0.28;0.13;;;;;;;21.63;53.58;99840.84;5031393;28;20075;-57
2022/05/28 06:04:10;;;;;;;0.65;0.22;;;;;;;21.72;54.44;99844.19;5031770;28;20057;-58
2022/05/28 06:06:36;;;;;;;0.70;0.35;;;;;;;21.69;53.93;99844.63;5032710;28;20021;-58
2022/05/28 06:09:01;;;;;;;0.32;0.20;;;;;;;21.67;54.51;99857.69;5032551;28;20041;-58
2022/05/28 06:11:27;;;;;;;2.70;0.30;;;;;;;21.72;54.79;99852.38;5032292;28;20021;-57
2022/05/28 06:13:52;;;;;;;0.75;0.25;;;;;;;21.67;55.29;99856.81;5032544;28;20026;-58
2022/05/28 06:16:18;;;;;;;0.30;0.30;;;;;;;21.63;56.96;99856.41;5032837;28;20063;-58
2022/05/28 06:18:44;;;;;;;0.47;0.30;;;;;;;21.64;54.66;99860.81;5032376;28;20021;-58
2022/05/28 06:21:10;;;;;;;0.22;0.22;;;;;;;21.64;54.64;99869.03;5032582;28;20099;-57
2022/05/28 06:23:35;;;;;;;0.45;0.40;;;;;;;21.68;55.32;99864.81;5032497;28;20103;-58
2022/05/28 06:26:03;;;;;;;0.30;0.20;;;;;;;21.69;55.08;99865.66;5032429;28;20040;-57
2022/05/28 06:28:28;;;;;;;0.15;0.15;;;;;;;21.70;54.77;99876.38;5032847;28;20021;-58
2022/05/28 06:30:59;;;;;;;0.15;0.10;;;;;;;21.67;54.59;99874.09;5032298;28;20087;-57
2022/05/28 06:33:24;;;;;;;0.45;0.38;;;;;;;21.75;54.16;99876.56;5032168;28;20081;-58
2022/05/28 06:35:55;;;;;;;0.43;0.20;;;;;;;21.70;55.86;99879.13;5032318;28;20511;-58
2022/05/28 06:38:20;;;;;;;0.77;0.40;;;;;;;21.66;55.07;99877.00;5032166;28;20041;-58
2022/05/28 06:40:46;;;;;;;1.67;0.50;;;;;;;21.73;54.43;99886.03;5032267;28;20388;-57
2022/05/28 06:43:11;;;;;;;0.70;0.40;;;;;;;21.70;55.26;99879.13;5032687;28;20400;-57
2022/05/28 06:45:36;;;;;;;0.65;0.25;;;;;;;21.66;54.74;99877.84;5031024;28;20079;-56
2022/05/28 06:48:02;;;;;;;0.50;0.20;;;;;;;21.67;55.29;99878.69;5032264;28;20029;-58
2022/05/28 06:53:11;;;;;;;1.00;0.52;;;;;;;21.78;53.93;99886.22;5032123;28;20036;-58
2022/05/28 06:55:37;;;;;;;0.30;0.25;;;;;;;21.71;54.94;99885.44;5032059;28;20029;-57
2022/05/28 06:58:06;;;;;;;0.30;0.17;;;;;;;21.73;54.46;99895.09;5032347;28;20021;-58
2022/05/28 07:00:31;;;;;;;0.90;0.30;;;;;;;21.77;54.67;99893.59;5031924;28;20063;-58
2022/05/28 07:02:57;;;;;;;0.47;0.30;;;;;;;21.71;55.28;99886.25;5032165;28;20029;-58
2022/05/28 07:05:22;;;;;;;0.10;0.10;;;;;;;21.76;55.06;99894.66;5031946;28;20035;-57
2022/05/28 07:07:47;;;;;;;0.95;0.10;;;;;;;21.72;56.05;99898.03;5032077;28;20065;-58
2022/05/28 07:10:13;;;;;;;1.90;0.40;;;;;;;21.70;55.00;99895.53;5032098;28;20025;-58
2022/05/28 07:12:38;;;;;;;0.90;0.30;;;;;;;21.78;54.71;99894.44;5031946;28;20044;-58
2022/05/28 07:15:04;;;;;;;1.10;0.20;;;;;;;21.70;54.83;99901.00;5032782;28;20316;-57
2022/05/28 07:17:30;;;;;;;0.45;0.17;;;;;;;21.71;54.78;99908.16;5035440;28;20025;-58
2022/05/28 07:19:55;;;;;;;0.60;0.20;;;;;;;21.70;56.17;99911.94;5035641;28;20097;-58
2022/05/28 07:22:20;;;;;;;0.52;0.50;;;;;;;21.71;56.01;99908.16;5034050;28;20041;-57
2022/05/28 07:24:45;;;;;;;0.30;0.30;;;;;;;21.70;56.57;99911.94;5035521;28;20029;-57
2022/05/28 07:27:12;;;;;;;0.20;0.20;;;;;;;21.74;54.59;99918.66;5036189;28;20039;-58
2022/05/28 07:29:39;;;;;;;0.30;0.17;;;;;;;21.70;54.29;99917.41;5035338;28;20056;-57
2022/05/28 07:32:05;;;;;;;0.65;0.28;;;;;;;21.74;54.96;99921.38;5035340;28;20528;-57
2022/05/28 07:34:30;;;;;;;0.20;0.20;;;;;;;21.70;55.07;99927.50;5035191;28;20515;-58
2022/05/28 07:36:55;;;;;;;0.85;0.20;;;;;;;21.67;55.34;99928.78;5035295;28;20049;-57
2022/05/28 07:39:20;;;;;;;0.95;0.20;;;;;;;21.66;57.13;99932.53;5035194;28;20022;-58
2022/05/28 07:41:46;;;;;;;0.20;0.20;;;;;;;21.70;54.93;99933.81;5035185;28;20061;-57
2022/05/28 07:44:11;;;;;;;0.30;0.20;;;;;;;21.68;55.58;99941.41;5035081;28;20034;-58
2022/05/28 07:46:37;;;;;;;0.20;0.20;;;;;;;21.69;55.20;99942.25;5035017;28;20031;-58
2022/05/28 07:49:03;;;;;;;0.22;0.20;;;;;;;21.67;55.18;99944.34;5035049;28;20519;-58
2022/05/28 07:51:29;;;;;;;0.40;0.30;;;;;;;21.76;53.99;99943.91;5035084;28;20068;-58
2022/05/28 07:53:55;;;;;;;0.50;0.20;;;;;;;21.75;54.42;99947.69;5034929;28;20029;-58
2022/05/28 07:56:20;;;;;;;0.45;0.20;;;;;;;21.69;55.32;99947.72;5034812;28;20072;-58
2022/05/28 07:58:46;;;;;;;0.40;0.25;;;;;;;21.73;56.73;99954.44;5034787;28;20033;-58
2022/05/28 08:01:26;;;;;;;0.30;0.30;;;;;;;21.66;54.12;99954.44;5033526;28;20029;-58
2022/05/28 08:03:52;;;;;;;0.88;0.20;;;;;;;21.71;54.86;99956.53;5035043;28;20409;-58
2022/05/28 08:06:19;;;;;;;0.43;0.30;;;;;;;21.69;55.65;99959.50;5034690;28;20051;-59
2022/05/28 08:08:45;;;;;;;0.35;0.32;;;;;;;21.66;55.23;99965.38;5034675;28;20108;-58
2022/05/28 08:11:11;;;;;;;0.15;0.15;;;;;;;21.70;56.06;99969.38;5034552;28;20021;-58
2022/05/28 08:13:37;;;;;;;0.43;0.30;;;;;;;21.76;54.27;99968.50;5034503;28;20036;-58
2022/05/28 08:16:03;;;;;;;0.80;0.13;;;;;;;21.66;55.78;99964.53;5034512;28;20029;-58
2022/05/28 08:18:29;;;;;;;0.30;0.30;;;;;;;21.72;55.17;99967.28;5033314;28;20025;-58
2022/05/28 08:23:42;;;;;;;0.95;0.30;;;;;;;21.66;55.90;99973.56;5034206;28;20088;-58
2022/05/28 08:26:08;;;;;;;1.17;0.28;;;;;;;21.70;55.72;99977.59;5033721;28;20033;-58
2022/05/28 08:28:36;;;;;;;0.40;0.20;;;;;;;21.66;55.24;99976.31;5033783;28;20057;-58
2022/05/28 08:31:01;;;;;;;0.85;0.20;;;;;;;21.64;55.79;99983.91;5034203;28;20423;-58
2022/05/28 08:33:26;;;;;;;1.75;0.20;;;;;;;21.75;54.73;99985.97;5034074;28;20025;-58
2022/05/28 08:35:52;;;;;;;0.45;0.20;;;;;;;21.70;55.16;99991.25;5034295;28;20070;-58
2022/05/28 08:38:20;;;;;;;2.22;0.63;;;;;;;21.70;54.39;99994.00;5033992;28;20036;-58
2022/05/28 08:41:12;;;;;;;0.20;0.10;;;;;;;21.68;55.07;99996.13;5034199;28;20531;-58
2022/05/28 08:43:42;;;;;;;0.55;0.30;;;;;;;21.66;55.72;99992.72;5033940;28;20619;-58
2022/05/28 08:46:11;;;;;;;0.32;0.32;;;;;;;21.60;55.71;99996.31;5033983;28;20021;-58
2022/05/28 08:48:49;;;;;;;0.45;0.20;;;;;;;21.75;55.60;99999.66;5033982;28;20033;-57
2022/05/28 08:51:29;;;;;;;0.35;0.20;;;;;;;21.72;56.17;100002.84;5033828;28;20025;-58
2022/05/28 08:54:00;;;;;;;0.45;0.28;;;;;;;21.73;56.11;100004.50;5033856;28;20021;-58
2022/05/28 08:56:27;;;;;;;0.20;0.20;;;;;;;21.66;55.43;100008.28;5033639;28;20029;-58
2022/05/28 08:59:20;;;;;;;0.57;0.10;;;;;;;21.73;56.05;100011.88;5033734;28;20499;-58
2022/05/28 09:01:46;;;;;;;0.32;0.20;;;;;;;21.66;55.07;100019.22;5033696;28;20068;-58
2022/05/28 09:04:20;;;;;;;0.85;0.20;;;;;;;21.72;54.54;100019.25;5034055;28;20037;-58
2022/05/28 09:06:51;;;;;;;0.30;0.10;;;;;;;21.73;55.00;100026.41;5033594;28;20104;-58
2022/05/28 09:09:16;;;;;;;0.57;0.30;;;;;;;21.76;55.86;100023.22;5033460;28;20404;-58
2022/05/28 09:11:51;;;;;;;1.80;0.20;;;;;;;21.71;54.97;100023.03;5033348;28;20025;-58
2022/05/28 09:14:19;;;;;;;;;;;;;;;21.65;56.31;100026.59;5033861;28;20021;-58
2022/05/28 09:16:46;;;;;;;0.10;0.10;;;;;;;21.68;55.30;100018.00;5033890;28;19909;-58
2022/05/28 09:19:20;;;;;;;0.93;0.60;;;;;;;21.75;55.05;100024.28;5033394;28;20021;-58
2022/05/28 09:21:47;;;;;;;0.47;0.22;;;;;;;21.77;55.63;100026.81;5033153;28;20049;-58
2022/05/28 09:24:19;;;;;;;1.02;0.65;;;;;;;21.70;55.55;100026.00;5033097;28;20037;-58
2022/05/28 09:26:52;;;;;;;0.32;0.30;;;;;;;21.68;56.63;100034.41;5033178;28;20469;-58
2022/05/28 09:29:43;;;;;;;0.40;0.20;;;;;;;21.69;54.83;100037.97;5033104;28;20033;-58
2022/05/28 09:32:14;;;;;;;0.30;0.30;;;;;;;21.69;56.03;100033.34;5026111;28;20037;-58
2022/05/28 09:34:42;;;;;;;1.02;0.32;;;;;;;21.73;55.36;100041.97;5033114;28;20108;-58
2022/05/28 09:37:21;;;;;;;0.30;0.30;;;;;;;21.74;55.95;100044.50;5033028;28;20026;-58
2022/05/28 09:39:59;;;;;;;0.20;0.10;;;;;;;21.80;54.87;100045.53;5032840;28;20068;-58
2022/05/28 09:42:53;;;;;;;2.15;0.57;;;;;;;21.70;55.63;100043.25;5032761;28;20027;-58
2022/05/28 09:45:56;;;;;;;0.40;0.20;;;;;;;21.74;55.30;100049.97;5032844;28;20048;-58
2022/05/28 09:48:24;;;;;;;0.17;0.17;;;;;;;21.69;57.41;100052.50;4971535;28;20090;-57
2022/05/28 09:50:50;;;;;;;0.63;0.25;;;;;;;21.71;54.99;100058.59;4971810;28;20043;-59
2022/05/28 09:56:36;;;;;;;1.17;0.60;;;;;;;21.76;55.20;100066.16;4971771;28;20077;-59
2022/05/28 09:59:35;;;;;;;0.30;0.20;;;;;;;21.72;55.36;100067.66;4971532;28;20043;-57
2022/05/28 10:02:12;;;;;;;0.30;0.30;;;;;;;21.72;56.67;100075.84;4895369;29;20036;-58
2022/05/28 10:05:11;;;;;;;1.17;0.25;;;;;;;21.66;54.96;100080.25;4895243;29;20493;-57
2022/05/28 10:07:44;;;;;;;1.48;0.20;;;;;;;21.69;56.04;100088.06;4894993;29;20395;-58
2022/05/28 10:10:19;;;;;;;0.43;0.25;;;;;;;21.75;55.80;100095.41;4895207;29;20028;-57
2022/05/28 10:12:45;;;;;;;0.20;0.20;;;;;;;21.81;57.03;100097.28;4894989;29;20120;-57
2022/05/28 10:15:21;;;;;;;2.67;0.30;;;;;;;21.73;57.02;100097.53;4895269;29;20120;-58
2022/05/28 10:18:01;;;;;;;1.35;0.40;;;;;;;21.74;55.78;100099.19;4895294;29;20047;-58
2022/05/28 10:20:28;;;;;;;0.65;0.30;;;;;;;21.71;55.73;100105.09;4894914;29;20043;-57
2022/05/28 10:22:56;;;;;;;0.40;0.28;;;;;;;21.72;55.28;100106.78;4897491;29;20056;-58
2022/05/28 10:25:46;;;;;;;1.35;0.43;;;;;;;21.72;56.54;100106.78;4951870;29;20126;-57
2022/05/28 10:28:11;;;;;;;0.38;0.20;;;;;;;21.71;56.00;100105.09;4952071;29;20475;-57
2022/05/28 10:30:39;;;;;;;0.38;0.20;;;;;;;21.72;55.62;100106.78;4951946;29;20063;-58
2022/05/28 10:33:08;;;;;;;1.00;0.40;;;;;;;21.69;55.80;100112.69;4952091;29;20087;-58
2022/05/28 10:35:34;;;;;;;0.32;0.30;;;;;;;21.75;55.63;100114.56;4951859;29;20375;-57
2022/05/28 10:38:14;;;;;;;0.52;0.30;;;;;;;21.75;55.78;100122.78;4963607;28;20488;-58
2022/05/28 10:40:51;;;;;;;0.20;0.20;;;;;;;21.71;55.64;100131.63;5032290;28;20377;-57
2022/05/28 10:43:36;;;;;;;2.05;0.13;;;;;;;21.71;56.72;100127.00;5032222;28;20411;-58
2022/05/28 10:46:18;;;;;;;1.55;0.40;;;;;;;21.70;55.57;100130.78;5032367;28;20025;-58
2022/05/28 10:48:49;;;;;;;0.35;0.30;;;;;;;21.72;56.72;100133.28;5032641;28;20057;-58
2022/05/28 10:51:20;;;;;;;1.85;0.20;;;;;;;21.70;56.08;100140.88;5033577;28;20425;-58
2022/05/28 10:54:02;;;;;;;0.30;0.13;;;;;;;21.73;57.04;100135.81;5036146;28;20104;-58
2022/05/28 10:56:47;;;;;;;0.73;0.20;;;;;;;21.77;56.53;100142.53;5035852;28;20025;-57
2022/05/28 10:59:41;;;;;;;0.22;0.20;;;;;;;21.76;55.66;100140.88;5035959;28;20040;-59
2022/05/28 11:02:09;;;;;;;0.13;0.13;;;;;;;21.76;55.86;100154.53;5036245;28;20144;-57
2022/05/28 11:04:53;;;;;;;0.20;0.20;;;;;;;21.74;56.18;100153.91;5034395;28;20021;-58
2022/05/28 11:07:32;;;;;;;0.38;0.10;;;;;;;21.74;56.00;100153.91;5035823;28;20053;-58
2022/05/28 11:10:16;;;;;;;1.45;0.40;;;;;;;21.74;56.16;100153.06;5035799;28;20025;-57
2022/05/28 11:12:42;;;;;;;0.47;0.20;;;;;;;21.75;55.23;100162.97;5035608;28;20149;-57
2022/05/28 11:15:16;;;;;;;0.25;0.20;;;;;;;21.74;55.89;100161.28;5035892;28;20029;-57
2022/05/28 11:17:44;;;;;;;;;;;;;;;21.74;55.87;100170.34;5035989;28;20063;-57
2022/05/28 11:20:36;;;;;;;0.68;0.20;;;;;;;21.81;56.76;100171.16;5035636;28;19920;-57
2022/05/28 11:23:16;;;;;;;1.48;0.40;;;;;;;21.78;54.99;100170.75;5034079;28;20497;-57
2022/05/28 11:26:04;;;;;;;0.43;0.28;;;;;;;21.78;55.72;100171.59;5035675;28;20025;-57
2022/05/28 11:28:41;;;;;;;0.98;0.30;;;;;;;21.74;55.10;100181.28;5035306;28;20064;-58
2022/05/28 11:31:18;;;;;;;0.47;0.30;;;;;;;21.80;55.79;100174.94;5035819;28;20021;-57
2022/05/28 11:33:47;;;;;;;0.10;0.10;;;;;;;21.77;56.82;100178.13;5035283;28;20060;-57
2022/05/28 11:36:36;;;;;;;0.40;0.20;;;;;;;21.77;54.78;100180.84;5035283;28;20071;-57
2022/05/28 11:39:29;;;;;;;0.10;0.10;;;;;;;21.79;56.13;100189.69;5035310;28;20108;-57
2022/05/28 11:42:04;;;;;;;0.50;0.17;;;;;;;21.77;55.92;100191.78;5035230;28;20029;-57
2022/05/28 11:44:47;;;;;;;0.10;0.10;;;;;;;21.88;56.25;100188.44;5035263;28;20112;-58
2022/05/28 11:47:41;;;;;;;0.43;0.10;;;;;;;21.80;56.15;100196.84;5033760;28;20025;-58
2022/05/28 11:53:19;;;;;;;0.20;0.20;;;;;;;21.82;56.17;100194.72;5034982;28;20033;-57
2022/05/28 11:55:46;;;;;;;0.32;0.28;;;;;;;21.81;55.89;100204.00;5034901;28;20372;-57